sensor_id;sensor_type;location;lat;lon;timestamp;pressure;altitude;pressure_sealevel;temperature
67966;BMP280;54749;47.850;9.002;2023-03-24T00:00:22;95267.16;;;10.87
67966;BMP280;54749;47.850;9.002;2023-03-24T00:03:09;95271.81;;;10.91
67966;BMP280;54749;47.850;9.002;2023-03-24T00:05:37;95260.78;;;10.92
67966;BMP280;54749;47.850;9.002;2023-03-24T00:08:04;95278.34;;;10.94
67966;BMP280;54749;47.850;9.002;2023-03-24T00:10:31;95279.41;;;10.91
67966;BMP280;54749;47.850;9.002;2023-03-24T00:13:00;95272.09;;;10.88
67966;BMP280;54749;47.850;9.002;2023-03-24T00:15:28;95276.91;;;10.82
67966;BMP280;54749;47.850;9.002;2023-03-24T00:17:55;95276.09;;;10.82
67966;BMP280;54749;47.850;9.002;2023-03-24T00:20:24;95267.84;;;10.80
67966;BMP280;54749;47.850;9.002;2023-03-24T00:22:54;95271.28;;;10.79
67966;BMP280;54749;47.850;9.002;2023-03-24T00:25:30;95252.16;;;10.76
67966;BMP280;54749;47.850;9.002;2023-03-24T00:28:02;95249.34;;;10.79
67966;BMP280;54749;47.850;9.002;2023-03-24T00:30:32;95253.75;;;10.77
67966;BMP280;54749;47.850;9.002;2023-03-24T00:33:01;95255.59;;;10.75
67966;BMP280;54749;47.850;9.002;2023-03-24T00:35:28;95246.28;;;10.76
67966;BMP280;54749;47.850;9.002;2023-03-24T00:37:55;95244.69;;;10.75
67966;BMP280;54749;47.850;9.002;2023-03-24T00:40:23;95239.09;;;10.71
67966;BMP280;54749;47.850;9.002;2023-03-24T00:42:50;95230.06;;;10.69
67966;BMP280;54749;47.850;9.002;2023-03-24T00:45:20;95225.28;;;10.66
67966;BMP280;54749;47.850;9.002;2023-03-24T00:47:50;95210.38;;;10.63
67966;BMP280;54749;47.850;9.002;2023-03-24T00:50:21;95214.25;;;10.58
67966;BMP280;54749;47.850;9.002;2023-03-24T00:52:53;95209.59;;;10.53
67966;BMP280;54749;47.850;9.002;2023-03-24T00:55:21;95206.94;;;10.46
67966;BMP280;54749;47.850;9.002;2023-03-24T00:57:49;95189.75;;;10.40
67966;BMP280;54749;47.850;9.002;2023-03-24T01:00:22;95193.09;;;10.31
67966;BMP280;54749;47.850;9.002;2023-03-24T01:02:54;95205.31;;;10.26
67966;BMP280;54749;47.850;9.002;2023-03-24T01:05:24;95195.75;;;10.20
67966;BMP280;54749;47.850;9.002;2023-03-24T01:07:58;95201.31;;;10.15
67966;BMP280;54749;47.850;9.002;2023-03-24T01:10:34;95191.59;;;10.10
67966;BMP280;54749;47.850;9.002;2023-03-24T01:13:01;95188.53;;;10.07
67966;BMP280;54749;47.850;9.002;2023-03-24T01:15:31;95191.34;;;10.04
67966;BMP280;54749;47.850;9.002;2023-03-24T01:18:02;95193.44;;;9.99
67966;BMP280;54749;47.850;9.002;2023-03-24T01:20:30;95189.44;;;9.97
67966;BMP280;54749;47.850;9.002;2023-03-24T01:23:02;95189.72;;;9.94
67966;BMP280;54749;47.850;9.002;2023-03-24T01:25:31;95183.97;;;9.92
67966;BMP280;54749;47.850;9.002;2023-03-24T01:27:58;95178.28;;;9.90
67966;BMP280;54749;47.850;9.002;2023-03-24T01:30:28;95180.94;;;9.88
67966;BMP280;54749;47.850;9.002;2023-03-24T01:32:55;95181.19;;;9.85
67966;BMP280;54749;47.850;9.002;2023-03-24T01:35:25;95175.84;;;9.79
67966;BMP280;54749;47.850;9.002;2023-03-24T01:37:54;95169.34;;;9.77
67966;BMP280;54749;47.850;9.002;2023-03-24T01:40:28;95179.81;;;9.72
67966;BMP280;54749;47.850;9.002;2023-03-24T01:42:57;95176.75;;;9.69
67966;BMP280;54749;47.850;9.002;2023-03-24T01:51:29;95172.63;;;9.68
67966;BMP280;54749;47.850;9.002;2023-03-24T01:54:09;95164.56;;;9.74
67966;BMP280;54749;47.850;9.002;2023-03-24T01:56:41;95172.53;;;9.79
67966;BMP280;54749;47.850;9.002;2023-03-24T01:59:13;95167.63;;;9.77
67966;BMP280;54749;47.850;9.002;2023-03-24T02:01:46;95177.34;;;9.81
67966;BMP280;54749;47.850;9.002;2023-03-24T02:04:43;95179.06;;;9.81
67966;BMP280;54749;47.850;9.002;2023-03-24T02:07:16;95184.00;;;9.82
67966;BMP280;54749;47.850;9.002;2023-03-24T02:09:45;95189.03;;;9.82
67966;BMP280;54749;47.850;9.002;2023-03-24T02:12:12;95179.59;;;9.84
67966;BMP280;54749;47.850;9.002;2023-03-24T02:14:40;95178.16;;;9.82
67966;BMP280;54749;47.850;9.002;2023-03-24T02:17:20;95177.34;;;9.81
67966;BMP280;54749;47.850;9.002;2023-03-24T02:20:02;95178.00;;;9.83
67966;BMP280;54749;47.850;9.002;2023-03-24T02:28:58;95173.91;;;9.82
67966;BMP280;54749;47.850;9.002;2023-03-24T02:35:08;95179.97;;;9.80
67966;BMP280;54749;47.850;9.002;2023-03-24T02:43:24;95167.47;;;9.79
67966;BMP280;54749;47.850;9.002;2023-03-24T02:46:18;95169.09;;;9.80
67966;BMP280;54749;47.850;9.002;2023-03-24T02:51:26;95163.81;;;9.82
67966;BMP280;54749;47.850;9.002;2023-03-24T02:54:09;95175.47;;;9.83
67966;BMP280;54749;47.850;9.002;2023-03-24T02:57:17;95166.97;;;9.84
67966;BMP280;54749;47.850;9.002;2023-03-24T03:00:23;95167.38;;;9.89
67966;BMP280;54749;47.850;9.002;2023-03-24T03:03:19;95165.78;;;9.88
67966;BMP280;54749;47.850;9.002;2023-03-24T03:06:03;95158.91;;;9.90
67966;BMP280;54749;47.850;9.002;2023-03-24T03:08:33;95155.47;;;9.91
67966;BMP280;54749;47.850;9.002;2023-03-24T03:11:04;95172.56;;;9.88
67966;BMP280;54749;47.850;9.002;2023-03-24T03:13:35;95148.66;;;9.92
67966;BMP280;54749;47.850;9.002;2023-03-24T03:16:07;95150.53;;;9.99
67966;BMP280;54749;47.850;9.002;2023-03-24T03:18:42;95143.09;;;10.07
67966;BMP280;54749;47.850;9.002;2023-03-24T03:21:13;95146.44;;;10.16
67966;BMP280;54749;47.850;9.002;2023-03-24T03:24:10;95133.97;;;10.43
67966;BMP280;54749;47.850;9.002;2023-03-24T03:26:38;95124.88;;;10.68
67966;BMP280;54749;47.850;9.002;2023-03-24T03:29:12;95116.47;;;10.86
67966;BMP280;54749;47.850;9.002;2023-03-24T03:31:54;95113.88;;;10.95
67966;BMP280;54749;47.850;9.002;2023-03-24T03:37:31;95090.59;;;11.01
67966;BMP280;54749;47.850;9.002;2023-03-24T03:42:38;95032.53;;;11.09
67966;BMP280;54749;47.850;9.002;2023-03-24T03:45:07;95028.44;;;11.08
67966;BMP280;54749;47.850;9.002;2023-03-24T03:47:35;95045.47;;;11.06
67966;BMP280;54749;47.850;9.002;2023-03-24T03:50:03;95067.03;;;11.01
67966;BMP280;54749;47.850;9.002;2023-03-24T03:52:34;95087.56;;;10.98
67966;BMP280;54749;47.850;9.002;2023-03-24T03:55:03;95074.41;;;10.94
67966;BMP280;54749;47.850;9.002;2023-03-24T03:57:32;95080.38;;;10.93
67966;BMP280;54749;47.850;9.002;2023-03-24T04:00:17;95088.91;;;10.92
67966;BMP280;54749;47.850;9.002;2023-03-24T04:03:13;95133.47;;;10.93
67966;BMP280;54749;47.850;9.002;2023-03-24T04:05:52;95128.41;;;10.93
67966;BMP280;54749;47.850;9.002;2023-03-24T04:11:45;95123.59;;;11.00
67966;BMP280;54749;47.850;9.002;2023-03-24T04:17:54;95130.00;;;11.03
67966;BMP280;54749;47.850;9.002;2023-03-24T04:20:47;95133.28;;;11.04
67966;BMP280;54749;47.850;9.002;2023-03-24T04:28:55;95173.91;;;10.93
67966;BMP280;54749;47.850;9.002;2023-03-24T04:31:30;95163.81;;;10.93
67966;BMP280;54749;47.850;9.002;2023-03-24T04:34:15;95155.00;;;10.97
67966;BMP280;54749;47.850;9.002;2023-03-24T04:36:58;95149.66;;;11.00
67966;BMP280;54749;47.850;9.002;2023-03-24T04:39:41;95147.00;;;11.02
67966;BMP280;54749;47.850;9.002;2023-03-24T04:42:23;95142.75;;;11.02
67966;BMP280;54749;47.850;9.002;2023-03-24T04:44:51;95147.94;;;11.01
67966;BMP280;54749;47.850;9.002;2023-03-24T04:47:43;95151.56;;;10.98
67966;BMP280;54749;47.850;9.002;2023-03-24T04:50:31;95160.31;;;11.03
67966;BMP280;54749;47.850;9.002;2023-03-24T04:53:06;95168.53;;;11.15
67966;BMP280;54749;47.850;9.002;2023-03-24T04:58:40;95172.47;;;11.26
67966;BMP280;54749;47.850;9.002;2023-03-24T05:01:07;95177.31;;;11.29
67966;BMP280;54749;47.850;9.002;2023-03-24T05:03:36;95166.41;;;11.29
67966;BMP280;54749;47.850;9.002;2023-03-24T05:06:04;95172.38;;;11.28
67966;BMP280;54749;47.850;9.002;2023-03-24T05:08:32;95177.53;;;11.26
67966;BMP280;54749;47.850;9.002;2023-03-24T05:11:00;95179.69;;;11.21
67966;BMP280;54749;47.850;9.002;2023-03-24T05:13:28;95181.56;;;11.20
67966;BMP280;54749;47.850;9.002;2023-03-24T05:15:59;95190.09;;;11.19
67966;BMP280;54749;47.850;9.002;2023-03-24T05:18:39;95188.34;;;11.19
67966;BMP280;54749;47.850;9.002;2023-03-24T05:21:07;95196.88;;;11.18
67966;BMP280;54749;47.850;9.002;2023-03-24T05:23:35;95192.50;;;11.20
67966;BMP280;54749;47.850;9.002;2023-03-24T05:26:03;95198.34;;;11.20
67966;BMP280;54749;47.850;9.002;2023-03-24T05:28:37;95199.16;;;11.21
67966;BMP280;54749;47.850;9.002;2023-03-24T05:31:04;95194.84;;;11.21
67966;BMP280;54749;47.850;9.002;2023-03-24T05:33:41;95193.28;;;11.20
67966;BMP280;54749;47.850;9.002;2023-03-24T05:36:12;95192.50;;;11.20
67966;BMP280;54749;47.850;9.002;2023-03-24T05:38:41;95185.69;;;11.20
67966;BMP280;54749;47.850;9.002;2023-03-24T05:41:08;95189.81;;;11.21
67966;BMP280;54749;47.850;9.002;2023-03-24T05:43:39;95192.63;;;11.19
67966;BMP280;54749;47.850;9.002;2023-03-24T05:46:10;95189.28;;;11.18
67966;BMP280;54749;47.850;9.002;2023-03-24T05:48:37;95200.19;;;11.19
67966;BMP280;54749;47.850;9.002;2023-03-24T05:51:11;95187.69;;;11.17
67966;BMP280;54749;47.850;9.002;2023-03-24T05:53:39;95196.34;;;11.15
67966;BMP280;54749;47.850;9.002;2023-03-24T05:56:15;95209.66;;;11.17
67966;BMP280;54749;47.850;9.002;2023-03-24T05:59:02;95206.34;;;11.16
67966;BMP280;54749;47.850;9.002;2023-03-24T06:01:50;95207.28;;;11.15
67966;BMP280;54749;47.850;9.002;2023-03-24T06:04:28;95202.34;;;11.14
67966;BMP280;54749;47.850;9.002;2023-03-24T06:07:02;95208.19;;;11.14
67966;BMP280;54749;47.850;9.002;2023-03-24T06:09:32;95213.13;;;11.16
67966;BMP280;54749;47.850;9.002;2023-03-24T06:12:05;95213.78;;;11.18
67966;BMP280;54749;47.850;9.002;2023-03-24T06:14:35;95213.78;;;11.18
67966;BMP280;54749;47.850;9.002;2023-03-24T06:17:08;95215.38;;;11.19
67966;BMP280;54749;47.850;9.002;2023-03-24T06:19:43;95217.50;;;11.23
67966;BMP280;54749;47.850;9.002;2023-03-24T06:22:34;95210.44;;;11.26
67966;BMP280;54749;47.850;9.002;2023-03-24T06:25:05;95219.53;;;11.29
67966;BMP280;54749;47.850;9.002;2023-03-24T06:27:36;95219.34;;;11.30
67966;BMP280;54749;47.850;9.002;2023-03-24T06:30:04;95211.53;;;11.33
67966;BMP280;54749;47.850;9.002;2023-03-24T06:32:32;95206.84;;;11.38
67966;BMP280;54749;47.850;9.002;2023-03-24T06:34:59;95203.84;;;11.52
67966;BMP280;54749;47.850;9.002;2023-03-24T06:37:35;95209.53;;;11.72
67966;BMP280;54749;47.850;9.002;2023-03-24T06:40:05;95206.41;;;11.78
67966;BMP280;54749;47.850;9.002;2023-03-24T06:42:33;95205.94;;;11.91
67966;BMP280;54749;47.850;9.002;2023-03-24T06:45:00;95206.41;;;12.04
67966;BMP280;54749;47.850;9.002;2023-03-24T06:47:28;95202.94;;;12.05
67966;BMP280;54749;47.850;9.002;2023-03-24T06:49:55;95202.56;;;12.00
67966;BMP280;54749;47.850;9.002;2023-03-24T06:52:22;95206.03;;;11.99
67966;BMP280;54749;47.850;9.002;2023-03-24T06:54:50;95190.84;;;11.99
67966;BMP280;54749;47.850;9.002;2023-03-24T06:57:18;95206.03;;;11.99
67966;BMP280;54749;47.850;9.002;2023-03-24T07:00:14;95198.81;;;12.04
67966;BMP280;54749;47.850;9.002;2023-03-24T07:03:01;95216.34;;;12.15
67966;BMP280;54749;47.850;9.002;2023-03-24T07:05:29;95206.97;;;12.25
67966;BMP280;54749;47.850;9.002;2023-03-24T07:07:56;95214.28;;;12.27
67966;BMP280;54749;47.850;9.002;2023-03-24T07:10:38;95226.44;;;12.24
67966;BMP280;54749;47.850;9.002;2023-03-24T07:13:06;95232.19;;;12.17
67966;BMP280;54749;47.850;9.002;2023-03-24T07:15:36;95217.16;;;12.15
67966;BMP280;54749;47.850;9.002;2023-03-24T07:18:04;95229.16;;;12.13
67966;BMP280;54749;47.850;9.002;2023-03-24T07:20:37;95224.25;;;12.12
67966;BMP280;54749;47.850;9.002;2023-03-24T07:23:13;95229.03;;;12.15
67966;BMP280;54749;47.850;9.002;2023-03-24T07:25:40;95235.31;;;12.11
67966;BMP280;54749;47.850;9.002;2023-03-24T07:28:24;95236.91;;;12.12
67966;BMP280;54749;47.850;9.002;2023-03-24T07:30:52;95240.09;;;12.14
67966;BMP280;54749;47.850;9.002;2023-03-24T07:33:21;95245.81;;;12.16
67966;BMP280;54749;47.850;9.002;2023-03-24T07:35:55;95256.59;;;12.18
67966;BMP280;54749;47.850;9.002;2023-03-24T07:38:25;95264.69;;;12.21
67966;BMP280;54749;47.850;9.002;2023-03-24T07:40:59;95256.03;;;12.24
67966;BMP280;54749;47.850;9.002;2023-03-24T07:43:29;95259.88;;;12.27
67966;BMP280;54749;47.850;9.002;2023-03-24T07:46:05;95271.44;;;12.30
67966;BMP280;54749;47.850;9.002;2023-03-24T07:48:36;95275.81;;;12.37
67966;BMP280;54749;47.850;9.002;2023-03-24T07:51:03;95269.38;;;12.43
67966;BMP280;54749;47.850;9.002;2023-03-24T07:53:49;95272.81;;;12.51
67966;BMP280;54749;47.850;9.002;2023-03-24T07:56:26;95265.28;;;12.59
67966;BMP280;54749;47.850;9.002;2023-03-24T07:58:56;95278.69;;;12.68
67966;BMP280;54749;47.850;9.002;2023-03-24T08:01:43;95278.16;;;12.74
67966;BMP280;54749;47.850;9.002;2023-03-24T08:04:14;95278.81;;;12.76
67966;BMP280;54749;47.850;9.002;2023-03-24T08:07:11;95278.16;;;12.74
67966;BMP280;54749;47.850;9.002;2023-03-24T08:09:39;95281.34;;;12.76
67966;BMP280;54749;47.850;9.002;2023-03-24T08:12:06;95286.13;;;12.79
67966;BMP280;54749;47.850;9.002;2023-03-24T08:14:46;95283.94;;;12.84
67966;BMP280;54749;47.850;9.002;2023-03-24T08:17:13;95272.56;;;12.88
67966;BMP280;54749;47.850;9.002;2023-03-24T08:19:40;95280.97;;;12.88
67966;BMP280;54749;47.850;9.002;2023-03-24T08:22:25;95288.47;;;12.90
67966;BMP280;54749;47.850;9.002;2023-03-24T08:24:53;95292.19;;;12.86
67966;BMP280;54749;47.850;9.002;2023-03-24T08:27:20;95298.50;;;12.82
67966;BMP280;54749;47.850;9.002;2023-03-24T08:29:47;95297.88;;;12.80
67966;BMP280;54749;47.850;9.002;2023-03-24T08:32:14;95299.47;;;12.81
67966;BMP280;54749;47.850;9.002;2023-03-24T08:34:41;95292.44;;;12.92
67966;BMP280;54749;47.850;9.002;2023-03-24T08:37:08;95294.91;;;13.01
67966;BMP280;54749;47.850;9.002;2023-03-24T08:39:37;95298.50;;;13.16
67966;BMP280;54749;47.850;9.002;2023-03-24T08:42:05;95296.91;;;13.32
67966;BMP280;54749;47.850;9.002;2023-03-24T08:44:32;95303.59;;;13.33
67966;BMP280;54749;47.850;9.002;2023-03-24T08:47:00;95300.06;;;13.34
67966;BMP280;54749;47.850;9.002;2023-03-24T08:49:27;95295.16;;;13.32
67966;BMP280;54749;47.850;9.002;2023-03-24T08:51:54;95297.69;;;13.32
67966;BMP280;54749;47.850;9.002;2023-03-24T08:54:21;95299.94;;;13.35
67966;BMP280;54749;47.850;9.002;2023-03-24T08:56:52;95302.16;;;13.38
67966;BMP280;54749;47.850;9.002;2023-03-24T08:59:19;95294.88;;;13.35
67966;BMP280;54749;47.850;9.002;2023-03-24T09:01:46;95290.00;;;13.42
67966;BMP280;54749;47.850;9.002;2023-03-24T09:04:13;95305.06;;;13.43
67966;BMP280;54749;47.850;9.002;2023-03-24T09:06:40;95310.94;;;13.44
67966;BMP280;54749;47.850;9.002;2023-03-24T09:09:07;95319.22;;;13.46
67966;BMP280;54749;47.850;9.002;2023-03-24T09:11:34;95300.59;;;13.37
67966;BMP280;54749;47.850;9.002;2023-03-24T09:14:04;95305.94;;;13.34
67966;BMP280;54749;47.850;9.002;2023-03-24T09:16:31;95308.72;;;13.41
67966;BMP280;54749;47.850;9.002;2023-03-24T09:18:59;95308.00;;;13.56
67966;BMP280;54749;47.850;9.002;2023-03-24T09:21:26;95308.59;;;13.67
67966;BMP280;54749;47.850;9.002;2023-03-24T09:23:53;95305.22;;;13.84
67966;BMP280;54749;47.850;9.002;2023-03-24T09:26:20;95292.47;;;14.01
67966;BMP280;54749;47.850;9.002;2023-03-24T09:28:49;95276.63;;;14.06
67966;BMP280;54749;47.850;9.002;2023-03-24T09:31:16;95271.66;;;13.97
67966;BMP280;54749;47.850;9.002;2023-03-24T09:33:43;95279.69;;;13.85
67966;BMP280;54749;47.850;9.002;2023-03-24T09:36:10;95285.41;;;13.87
67966;BMP280;54749;47.850;9.002;2023-03-24T09:38:38;95282.22;;;13.85
67966;BMP280;54749;47.850;9.002;2023-03-24T09:41:14;95286.28;;;13.78
67966;BMP280;54749;47.850;9.002;2023-03-24T09:43:52;95277.94;;;13.85
67966;BMP280;54749;47.850;9.002;2023-03-24T09:46:28;95270.75;;;14.06
67966;BMP280;54749;47.850;9.002;2023-03-24T09:48:57;95274.13;;;14.14
67966;BMP280;54749;47.850;9.002;2023-03-24T09:51:26;95272.88;;;14.26
67966;BMP280;54749;47.850;9.002;2023-03-24T09:56:25;95277.06;;;14.35
67966;BMP280;54749;47.850;9.002;2023-03-24T09:59:02;95264.69;;;14.39
67966;BMP280;54749;47.850;9.002;2023-03-24T10:01:30;95260.72;;;14.37
67966;BMP280;54749;47.850;9.002;2023-03-24T10:03:58;95268.53;;;14.51
67966;BMP280;54749;47.850;9.002;2023-03-24T10:06:29;95258.69;;;14.64
67966;BMP280;54749;47.850;9.002;2023-03-24T10:23:39;95267.78;;;14.18
67966;BMP280;54749;47.850;9.002;2023-03-24T10:29:32;95255.03;;;14.02
67966;BMP280;54749;47.850;9.002;2023-03-24T10:32:24;95270.66;;;13.90
67966;BMP280;54749;47.850;9.002;2023-03-24T10:34:57;95303.19;;;13.87
67966;BMP280;54749;47.850;9.002;2023-03-24T10:37:28;95302.53;;;13.68
67966;BMP280;54749;47.850;9.002;2023-03-24T10:39:56;95302.00;;;13.57
67966;BMP280;54749;47.850;9.002;2023-03-24T10:42:25;95312.88;;;13.66
67966;BMP280;54749;47.850;9.002;2023-03-24T10:44:54;95322.78;;;13.77
67966;BMP280;54749;47.850;9.002;2023-03-24T10:47:27;95313.94;;;13.81
67966;BMP280;54749;47.850;9.002;2023-03-24T10:50:05;95329.75;;;13.75
67966;BMP280;54749;47.850;9.002;2023-03-24T10:52:42;95322.56;;;13.88
67966;BMP280;54749;47.850;9.002;2023-03-24T10:55:16;95315.69;;;14.05
67966;BMP280;54749;47.850;9.002;2023-03-24T10:57:48;95327.38;;;13.99
67966;BMP280;54749;47.850;9.002;2023-03-24T11:00:20;95342.00;;;13.80
67966;BMP280;54749;47.850;9.002;2023-03-24T11:02:56;95350.50;;;13.71
67966;BMP280;54749;47.850;9.002;2023-03-24T11:05:27;95348.69;;;13.64
67966;BMP280;54749;47.850;9.002;2023-03-24T11:08:10;95350.81;;;13.51
67966;BMP280;54749;47.850;9.002;2023-03-24T11:10:38;95356.50;;;13.45
67966;BMP280;54749;47.850;9.002;2023-03-24T11:13:16;95346.78;;;13.41
67966;BMP280;54749;47.850;9.002;2023-03-24T11:16:08;95352.72;;;13.32
67966;BMP280;54749;47.850;9.002;2023-03-24T11:18:37;95356.13;;;13.40
67966;BMP280;54749;47.850;9.002;2023-03-24T11:21:05;95348.16;;;13.52
67966;BMP280;54749;47.850;9.002;2023-03-24T11:23:37;95346.75;;;13.58
67966;BMP280;54749;47.850;9.002;2023-03-24T11:26:19;95343.88;;;13.53
67966;BMP280;54749;47.850;9.002;2023-03-24T11:28:54;95334.22;;;13.56
67966;BMP280;54749;47.850;9.002;2023-03-24T11:31:30;95335.44;;;13.52
67966;BMP280;54749;47.850;9.002;2023-03-24T11:34:07;95329.88;;;13.49
67966;BMP280;54749;47.850;9.002;2023-03-24T11:36:56;95336.47;;;13.42
67966;BMP280;54749;47.850;9.002;2023-03-24T11:39:27;95314.59;;;13.41
67966;BMP280;54749;47.850;9.002;2023-03-24T11:42:03;95287.31;;;13.43
67966;BMP280;54749;47.850;9.002;2023-03-24T11:47:29;95285.16;;;13.31
67966;BMP280;54749;47.850;9.002;2023-03-24T11:50:16;95266.31;;;13.16
67966;BMP280;54749;47.850;9.002;2023-03-24T11:52:55;95303.66;;;13.07
67966;BMP280;54749;47.850;9.002;2023-03-24T11:55:33;95311.03;;;13.00
67966;BMP280;54749;47.850;9.002;2023-03-24T11:58:03;95312.59;;;12.94
67966;BMP280;54749;47.850;9.002;2023-03-24T12:00:39;95332.25;;;12.82
67966;BMP280;54749;47.850;9.002;2023-03-24T12:09:16;95333.81;;;12.40
67966;BMP280;54749;47.850;9.002;2023-03-24T12:17:49;95298.72;;;12.19
67966;BMP280;54749;47.850;9.002;2023-03-24T12:23:26;95279.47;;;12.25
67966;BMP280;54749;47.850;9.002;2023-03-24T12:28:50;95275.25;;;12.43
67966;BMP280;54749;47.850;9.002;2023-03-24T12:36:47;95264.53;;;12.49
67966;BMP280;54749;47.850;9.002;2023-03-24T12:39:28;95259.88;;;12.27
67966;BMP280;54749;47.850;9.002;2023-03-24T12:44:46;95248.22;;;12.08
67966;BMP280;54749;47.850;9.002;2023-03-24T12:47:39;95302.69;;;12.21
67966;BMP280;54749;47.850;9.002;2023-03-24T12:50:37;95294.56;;;12.44
67966;BMP280;54749;47.850;9.002;2023-03-24T12:53:32;95292.50;;;12.57
67966;BMP280;54749;47.850;9.002;2023-03-24T12:56:12;95278.69;;;12.68
67966;BMP280;54749;47.850;9.002;2023-03-24T12:58:56;95258.78;;;12.90
67966;BMP280;54749;47.850;9.002;2023-03-24T13:01:43;95247.53;;;13.27
67966;BMP280;54749;47.850;9.002;2023-03-24T13:04:21;95249.28;;;13.51
67966;BMP280;54749;47.850;9.002;2023-03-24T13:12:23;95259.38;;;13.68
67966;BMP280;54749;47.850;9.002;2023-03-24T13:17:37;95253.03;;;13.89
67966;BMP280;54749;47.850;9.002;2023-03-24T13:20:06;95258.34;;;13.78
67966;BMP280;54749;47.850;9.002;2023-03-24T13:22:38;95266.75;;;13.79
67966;BMP280;54749;47.850;9.002;2023-03-24T13:25:24;95260.34;;;13.67
67966;BMP280;54749;47.850;9.002;2023-03-24T13:27:59;95275.69;;;13.58
67966;BMP280;54749;47.850;9.002;2023-03-24T13:33:05;95269.75;;;13.49
67966;BMP280;54749;47.850;9.002;2023-03-24T13:41:03;95267.13;;;13.17
67966;BMP280;54749;47.850;9.002;2023-03-24T13:43:32;95267.56;;;12.96
67966;BMP280;54749;47.850;9.002;2023-03-24T13:46:02;95277.06;;;12.77
67966;BMP280;54749;47.850;9.002;2023-03-24T13:48:37;95286.59;;;12.65
67966;BMP280;54749;47.850;9.002;2023-03-24T13:51:28;95275.44;;;12.59
67966;BMP280;54749;47.850;9.002;2023-03-24T13:56:44;95266.75;;;12.61
67966;BMP280;54749;47.850;9.002;2023-03-24T14:05:09;95270.28;;;12.51
67966;BMP280;54749;47.850;9.002;2023-03-24T14:10:28;95274.00;;;12.47
67966;BMP280;54749;47.850;9.002;2023-03-24T14:13:04;95274.56;;;12.50
67966;BMP280;54749;47.850;9.002;2023-03-24T14:15:56;95270.00;;;12.54
67966;BMP280;54749;47.850;9.002;2023-03-24T14:25:54;95281.97;;;12.35
67966;BMP280;54749;47.850;9.002;2023-03-24T14:33:28;95283.97;;;12.31
67966;BMP280;54749;47.850;9.002;2023-03-24T14:36:01;95283.50;;;12.45
67966;BMP280;54749;47.850;9.002;2023-03-24T14:38:40;95274.75;;;12.57
67966;BMP280;54749;47.850;9.002;2023-03-24T14:41:13;95291.44;;;12.59
67966;BMP280;54749;47.850;9.002;2023-03-24T14:54:18;95291.22;;;12.26
67966;BMP280;54749;47.850;9.002;2023-03-24T14:56:51;95284.63;;;12.16
67966;BMP280;54749;47.850;9.002;2023-03-24T14:59:45;95289.72;;;12.07
67966;BMP280;54749;47.850;9.002;2023-03-24T15:02:34;95292.00;;;12.01
67966;BMP280;54749;47.850;9.002;2023-03-24T15:05:23;95286.84;;;11.93
67966;BMP280;54749;47.850;9.002;2023-03-24T15:08:02;95274.31;;;11.91
67966;BMP280;54749;47.850;9.002;2023-03-24T15:13:44;95280.19;;;11.83
67966;BMP280;54749;47.850;9.002;2023-03-24T15:18:49;95281.59;;;11.68
67966;BMP280;54749;47.850;9.002;2023-03-24T15:21:36;95267.25;;;11.59
67966;BMP280;54749;47.850;9.002;2023-03-24T15:29:36;95267.78;;;11.44
67966;BMP280;54749;47.850;9.002;2023-03-24T15:32:04;95280.84;;;11.40
67966;BMP280;54749;47.850;9.002;2023-03-24T15:34:38;95275.28;;;11.37
67966;BMP280;54749;47.850;9.002;2023-03-24T15:37:24;95280.75;;;11.32
67966;BMP280;54749;47.850;9.002;2023-03-24T15:39:56;95271.84;;;11.28
67966;BMP280;54749;47.850;9.002;2023-03-24T15:42:43;95288.44;;;11.21
67966;BMP280;54749;47.850;9.002;2023-03-24T15:45:20;95293.13;;;11.17
67966;BMP280;54749;47.850;9.002;2023-03-24T15:47:50;95299.50;;;11.11
67966;BMP280;54749;47.850;9.002;2023-03-24T15:50:37;95290.31;;;11.01
67966;BMP280;54749;47.850;9.002;2023-03-24T15:55:42;95307.09;;;10.93
67966;BMP280;54749;47.850;9.002;2023-03-24T15:58:28;95313.06;;;10.83
67966;BMP280;54749;47.850;9.002;2023-03-24T16:01:00;95308.28;;;10.80
67966;BMP280;54749;47.850;9.002;2023-03-24T16:03:29;95298.94;;;10.71
67966;BMP280;54749;47.850;9.002;2023-03-24T16:05:57;95284.69;;;10.61
67966;BMP280;54749;47.850;9.002;2023-03-24T16:08:27;95254.66;;;10.58
67966;BMP280;54749;47.850;9.002;2023-03-24T16:11:00;95241.22;;;10.48
67966;BMP280;54749;47.850;9.002;2023-03-24T16:13:30;95295.59;;;10.43
67966;BMP280;54749;47.850;9.002;2023-03-24T16:18:45;95287.84;;;10.35
67966;BMP280;54749;47.850;9.002;2023-03-24T16:21:14;95302.22;;;10.34
67966;BMP280;54749;47.850;9.002;2023-03-24T16:23:41;95292.63;;;10.29
67966;BMP280;54749;47.850;9.002;2023-03-24T16:26:14;95305.66;;;10.24
67966;BMP280;54749;47.850;9.002;2023-03-24T16:28:41;95273.47;;;10.26
67966;BMP280;54749;47.850;9.002;2023-03-24T16:31:30;95270.72;;;10.29
67966;BMP280;54749;47.850;9.002;2023-03-24T16:33:59;95285.31;;;10.35
67966;BMP280;54749;47.850;9.002;2023-03-24T16:36:27;95270.16;;;10.35
67966;BMP280;54749;47.850;9.002;2023-03-24T16:38:56;95288.50;;;10.28
67966;BMP280;54749;47.850;9.002;2023-03-24T16:41:24;95264.03;;;10.19
67966;BMP280;54749;47.850;9.002;2023-03-24T16:43:51;95258.97;;;10.10
67966;BMP280;54749;47.850;9.002;2023-03-24T16:46:39;95270.25;;;10.06
67966;BMP280;54749;47.850;9.002;2023-03-24T16:49:11;95254.19;;;10.07
67966;BMP280;54749;47.850;9.002;2023-03-24T16:51:39;95246.72;;;10.05
67966;BMP280;54749;47.850;9.002;2023-03-24T16:54:07;95218.16;;;10.05
67966;BMP280;54749;47.850;9.002;2023-03-24T16:56:35;95240.88;;;10.05
67966;BMP280;54749;47.850;9.002;2023-03-24T16:59:03;95254.69;;;10.01
67966;BMP280;54749;47.850;9.002;2023-03-24T17:01:35;95258.13;;;10.00
67966;BMP280;54749;47.850;9.002;2023-03-24T17:04:10;95261.56;;;9.90
67966;BMP280;54749;47.850;9.002;2023-03-24T17:06:44;95271.78;;;9.88
67966;BMP280;54749;47.850;9.002;2023-03-24T17:09:13;95254.66;;;9.82
67966;BMP280;54749;47.850;9.002;2023-03-24T17:11:42;95270.28;;;9.77
67966;BMP280;54749;47.850;9.002;2023-03-24T17:14:10;95282.69;;;9.69
67966;BMP280;54749;47.850;9.002;2023-03-24T17:16:42;95255.03;;;9.58
67966;BMP280;54749;47.850;9.002;2023-03-24T17:19:10;95251.97;;;9.55
67966;BMP280;54749;47.850;9.002;2023-03-24T17:21:44;95255.94;;;9.57
67966;BMP280;54749;47.850;9.002;2023-03-24T17:24:13;95237.09;;;9.52
67966;BMP280;54749;47.850;9.002;2023-03-24T17:26:41;95246.59;;;9.48
67966;BMP280;54749;47.850;9.002;2023-03-24T17:29:10;95243.69;;;9.44